Time;durP1;ratioP1;P1;durP2;ratioP2;P2;SDS_P1;SDS_P2;PMS_P1;PMS_P2;Temp;Humidity;BMP_temperature;BMP_pressure;BME280_temperature;BME280_humidity;BME280_pressure;Samples;Min_cycle;Max_cycle;Signal;HPM_P1;HPM_P2
2021/04/05 00:00:09;;;;;;;39.07;26.47;;;;;;;;;;5034641;28;20809;-61
2021/04/05 00:02:36;;;;;;;40.63;23.37;;;;;;;;;;5034612;28;20496;-60
2021/04/05 00:05:05;;;;;;;39.03;24.93;;;;;;;;;;5035068;28;20511;-60
2021/04/05 00:07:31;;;;;;;49.63;25.07;;;;;;;;;;5034517;28;20456;-61
2021/04/05 00:09:58;;;;;;;40.60;27.50;;;;;;;;;;5034647;28;20451;-61
2021/04/05 00:12:25;;;;;;;42.47;25.80;;;;;;;;;;5034670;28;20985;-58
2021/04/05 00:14:52;;;;;;;35.97;23.13;;;;;;;;;;5034407;28;21151;-60
2021/04/05 00:17:18;;;;;;;38.93;21.43;;;;;;;;;;5034813;28;20837;-62
2021/04/05 00:19:45;;;;;;;51.07;26.33;;;;;;;;;;5034219;28;20452;-60
2021/04/05 00:22:11;;;;;;;41.47;22.33;;;;;;;;;;5034276;28;20491;-61
2021/04/05 00:24:38;;;;;;;41.30;25.33;;;;;;;;;;5034252;28;20818;-61
2021/04/05 00:27:05;;;;;;;43.97;24.10;;;;;;;;;;5034438;28;20456;-61
2021/04/05 00:29:33;;;;;;;38.03;23.50;;;;;;;;;;5034122;28;20459;-60
2021/04/05 00:31:59;;;;;;;43.73;23.60;;;;;;;;;;5033476;28;20473;-60
2021/04/05 00:34:26;;;;;;;42.17;23.80;;;;;;;;;;5034159;28;20873;-59
2021/04/05 00:36:52;;;;;;;41.67;25.03;;;;;;;;;;5033900;28;20463;-60
2021/04/05 00:39:19;;;;;;;37.50;20.80;;;;;;;;;;5034205;28;20801;-62
2021/04/05 00:41:45;;;;;;;41.67;22.20;;;;;;;;;;5033895;28;20452;-61
2021/04/05 00:44:12;;;;;;;39.47;22.40;;;;;;;;;;5034124;28;20936;-60
2021/04/05 00:46:39;;;;;;;41.53;22.63;;;;;;;;;;5034122;28;20534;-60
2021/04/05 00:49:06;;;;;;;39.23;23.17;;;;;;;;;;5033619;28;20997;-61
2021/04/05 00:51:32;;;;;;;35.57;22.00;;;;;;;;;;5033823;28;20460;-59
2021/04/05 00:53:59;;;;;;;39.67;23.50;;;;;;;;;;5033968;28;20446;-62
2021/04/05 00:56:27;;;;;;;41.60;24.40;;;;;;;;;;5033949;28;20452;-61
2021/04/05 00:58:54;;;;;;;37.00;24.80;;;;;;;;;;5033665;28;20451;-62
2021/04/05 01:01:22;;;;;;;44.00;24.27;;;;;;;;;;5033416;28;20466;-61
2021/04/05 01:03:50;;;;;;;40.90;23.87;;;;;;;;;;5033421;28;21001;-61
2021/04/05 01:06:19;;;;;;;37.40;23.17;;;;;;;;;;5033909;28;20946;-61
2021/04/05 01:08:45;;;;;;;41.23;24.83;;;;;;;;;;5034116;28;21012;-60
2021/04/05 01:11:14;;;;;;;42.67;23.07;;;;;;;;;;5033248;28;20448;-61
2021/04/05 01:13:40;;;;;;;39.67;26.03;;;;;;;;;;5033494;28;20474;-62
2021/04/05 01:16:07;;;;;;;39.20;22.40;;;;;;;;;;5033552;28;20456;-60
2021/04/05 01:18:34;;;;;;;41.43;23.63;;;;;;;;;;5033792;28;20460;-62
2021/04/05 01:21:02;;;;;;;41.23;22.47;;;;;;;;;;5033225;28;20480;-60
2021/04/05 01:23:29;;;;;;;43.33;24.47;;;;;;;;;;5033113;28;20492;-61
2021/04/05 01:25:56;;;;;;;39.73;23.60;;;;;;;;;;5033315;28;20452;-61
2021/04/05 01:28:22;;;;;;;43.50;23.50;;;;;;;;;;5033144;28;20953;-61
2021/04/05 01:30:51;;;;;;;40.30;22.10;;;;;;;;;;5032647;28;20976;-59
2021/04/05 01:33:19;;;;;;;39.40;21.27;;;;;;;;;;5032901;28;20824;-60
2021/04/05 01:35:47;;;;;;;38.00;21.70;;;;;;;;;;5033308;28;20455;-59
2021/04/05 01:38:15;;;;;;;43.10;23.37;;;;;;;;;;5033052;28;20444;-59
2021/04/05 01:40:43;;;;;;;43.60;23.33;;;;;;;;;;5031938;28;20507;-61
2021/04/05 01:43:10;;;;;;;35.50;19.90;;;;;;;;;;5032697;28;21013;-60
2021/04/05 01:45:36;;;;;;;38.57;21.53;;;;;;;;;;5032650;28;20498;-61
2021/04/05 01:48:03;;;;;;;36.83;21.40;;;;;;;;;;5033100;28;20455;-60
2021/04/05 01:50:30;;;;;;;39.33;21.67;;;;;;;;;;5032284;28;20460;-60
2021/04/05 01:53:02;;;;;;;41.70;22.37;;;;;;;;;;5032855;28;20981;-59
2021/04/05 01:55:29;;;;;;;36.87;21.60;;;;;;;;;;5032680;28;20449;-59
2021/04/05 01:57:56;;;;;;;34.13;21.07;;;;;;;;;;5032374;28;20535;-60
2021/04/05 02:00:25;;;;;;;48.27;24.13;;;;;;;;;;5032757;28;20460;-61
2021/04/05 02:02:52;;;;;;;36.80;21.77;;;;;;;;;;5034431;28;20510;-61
2021/04/05 02:05:18;;;;;;;37.47;22.07;;;;;;;;;;5034538;28;20460;-61
2021/04/05 02:07:45;;;;;;;38.37;21.50;;;;;;;;;;5032074;28;20453;-62
2021/04/05 02:10:14;;;;;;;42.57;21.53;;;;;;;;;;5031895;28;20455;-61
2021/04/05 02:12:40;;;;;;;38.43;20.63;;;;;;;;;;5032218;28;20468;-62
2021/04/05 02:15:10;;;;;;;36.80;22.00;;;;;;;;;;5032251;28;21117;-60
2021/04/05 02:17:36;;;;;;;41.80;21.77;;;;;;;;;;5032399;28;20498;-62
2021/04/05 02:20:05;;;;;;;43.13;22.60;;;;;;;;;;5031861;28;20451;-61
2021/04/05 02:22:32;;;;;;;43.70;22.07;;;;;;;;;;5032255;28;20491;-61
2021/04/05 02:24:59;;;;;;;40.33;21.97;;;;;;;;;;5032259;28;20526;-62
2021/04/05 02:27:25;;;;;;;43.50;23.17;;;;;;;;;;5032558;28;20447;-60
2021/04/05 02:29:52;;;;;;;41.33;22.20;;;;;;;;;;5032258;28;20462;-59
2021/04/05 02:32:20;;;;;;;41.00;23.17;;;;;;;;;;5032364;28;20500;-62
2021/04/05 02:34:46;;;;;;;45.60;23.70;;;;;;;;;;5032203;28;20471;-61
2021/04/05 02:37:13;;;;;;;38.90;22.20;;;;;;;;;;5032230;28;20829;-60
2021/04/05 02:39:40;;;;;;;41.07;21.00;;;;;;;;;;5031833;28;20477;-62
2021/04/05 02:42:07;;;;;;;40.73;21.33;;;;;;;;;;5031911;28;20495;-60
2021/04/05 02:44:34;;;;;;;39.33;21.20;;;;;;;;;;5032033;28;20449;-62
2021/04/05 02:47:01;;;;;;;38.53;23.20;;;;;;;;;;5032130;28;20510;-60
2021/04/05 02:49:28;;;;;;;36.90;19.73;;;;;;;;;;5031436;28;20459;-60
2021/04/05 02:51:55;;;;;;;42.27;21.93;;;;;;;;;;5031668;28;20515;-58
2021/04/05 02:54:22;;;;;;;45.13;24.03;;;;;;;;;;5031076;28;20449;-60
2021/04/05 02:56:49;;;;;;;37.10;21.70;;;;;;;;;;5031973;28;20494;-61
2021/04/05 02:59:17;;;;;;;42.07;23.70;;;;;;;;;;5031903;28;20449;-59
2021/04/05 03:01:43;;;;;;;38.73;23.37;;;;;;;;;;5031272;28;20447;-58
2021/04/05 03:04:10;;;;;;;40.80;23.30;;;;;;;;;;5031745;28;20450;-59
2021/04/05 03:06:38;;;;;;;45.27;24.27;;;;;;;;;;5031514;28;20449;-61
2021/04/05 03:09:05;;;;;;;45.23;24.70;;;;;;;;;;5031503;28;20453;-58
2021/04/05 03:11:32;;;;;;;45.83;24.50;;;;;;;;;;5030088;28;20464;-59
2021/04/05 03:13:59;;;;;;;44.57;25.73;;;;;;;;;;5030733;28;20476;-58
2021/04/05 03:16:26;;;;;;;44.77;25.33;;;;;;;;;;5031568;28;20459;-59
2021/04/05 03:18:53;;;;;;;39.17;21.87;;;;;;;;;;5031469;28;20433;-57
2021/04/05 03:21:22;;;;;;;50.63;26.23;;;;;;;;;;5031118;28;20496;-59
2021/04/05 03:23:50;;;;;;;40.83;24.17;;;;;;;;;;5030497;28;20549;-60
2021/04/05 03:26:17;;;;;;;41.87;22.67;;;;;;;;;;5031254;28;20953;-61
2021/04/05 03:28:44;;;;;;;38.83;23.77;;;;;;;;;;5030268;28;20511;-58
2021/04/05 03:31:11;;;;;;;42.57;23.67;;;;;;;;;;5031095;28;20459;-61
2021/04/05 03:33:42;;;;;;;43.97;24.70;;;;;;;;;;5031359;28;20969;-59
2021/04/05 03:36:12;;;;;;;41.33;24.73;;;;;;;;;;5031519;28;20437;-61
2021/04/05 03:38:38;;;;;;;46.80;26.33;;;;;;;;;;5031659;28;20479;-60
2021/04/05 03:41:10;;;;;;;43.83;24.20;;;;;;;;;;5031075;28;20503;-61
2021/04/05 03:43:39;;;;;;;47.17;25.90;;;;;;;;;;5031911;28;20516;-61
2021/04/05 03:46:08;;;;;;;46.87;25.43;;;;;;;;;;5031430;28;20476;-62
2021/04/05 03:48:38;;;;;;;47.10;27.03;;;;;;;;;;5031609;28;20476;-60
2021/04/05 03:51:08;;;;;;;48.60;26.70;;;;;;;;;;5031489;28;20452;-61
2021/04/05 03:53:39;;;;;;;42.17;22.70;;;;;;;;;;5031186;28;20472;-61
2021/04/05 03:56:11;;;;;;;47.30;27.47;;;;;;;;;;5031414;28;20866;-62
2021/04/05 03:58:39;;;;;;;41.13;21.57;;;;;;;;;;5030951;28;20973;-61
2021/04/05 04:01:07;;;;;;;29.73;16.03;;;;;;;;;;5031223;28;20456;-61
2021/04/05 04:03:42;;;;;;;45.87;24.97;;;;;;;;;;5031147;28;20857;-58
2021/04/05 04:06:10;;;;;;;45.50;25.10;;;;;;;;;;5031539;28;20460;-61
2021/04/05 04:08:40;;;;;;;47.07;25.67;;;;;;;;;;5034582;28;20892;-62
2021/04/05 04:11:09;;;;;;;47.70;25.33;;;;;;;;;;5034378;28;20456;-61
2021/04/05 04:13:38;;;;;;;43.07;23.57;;;;;;;;;;5034690;28;20549;-60
2021/04/05 04:16:06;;;;;;;42.10;23.73;;;;;;;;;;5034519;28;20507;-62
2021/04/05 04:18:32;;;;;;;45.93;23.23;;;;;;;;;;5034451;28;20506;-61
2021/04/05 04:20:59;;;;;;;43.40;25.50;;;;;;;;;;5034011;28;20490;-60
2021/04/05 04:23:26;;;;;;;40.83;20.53;;;;;;;;;;5034326;28;20896;-58
2021/04/05 04:25:53;;;;;;;37.43;20.50;;;;;;;;;;5034170;28;20468;-58
2021/04/05 04:28:20;;;;;;;38.97;23.17;;;;;;;;;;5034444;28;20540;-60
2021/04/05 04:30:54;;;;;;;33.93;20.60;;;;;;;;;;5034180;28;20449;-60
2021/04/05 04:33:21;;;;;;;34.30;19.47;;;;;;;;;;5034071;28;20503;-61
2021/04/05 04:35:48;;;;;;;41.87;20.87;;;;;;;;;;5034352;28;20452;-59
2021/04/05 04:38:14;;;;;;;35.43;20.30;;;;;;;;;;5033870;28;20829;-59
2021/04/05 04:40:41;;;;;;;45.00;23.23;;;;;;;;;;5033963;28;20448;-61
2021/04/05 04:43:09;;;;;;;32.83;15.80;;;;;;;;;;5034099;28;20488;-60
2021/04/05 04:45:36;;;;;;;38.53;20.83;;;;;;;;;;5034029;28;20880;-58
2021/04/05 04:48:03;;;;;;;42.80;23.30;;;;;;;;;;5034038;28;20506;-58
2021/04/05 04:50:30;;;;;;;44.33;24.17;;;;;;;;;;5033708;28;20451;-61
2021/04/05 04:52:57;;;;;;;44.20;25.33;;;;;;;;;;5033793;28;20476;-60
2021/04/05 04:55:24;;;;;;;37.57;21.80;;;;;;;;;;5033988;28;20448;-61
2021/04/05 04:57:50;;;;;;;42.17;23.93;;;;;;;;;;5033773;28;20973;-61
2021/04/05 05:00:17;;;;;;;32.67;20.00;;;;;;;;;;5033537;28;20448;-61
2021/04/05 05:02:45;;;;;;;44.47;23.60;;;;;;;;;;5033336;28;20539;-62
2021/04/05 05:05:12;;;;;;;43.17;24.70;;;;;;;;;;5033778;28;20456;-62
2021/04/05 05:07:39;;;;;;;38.37;23.13;;;;;;;;;;5033281;28;20449;-60
2021/04/05 05:10:07;;;;;;;38.53;20.17;;;;;;;;;;5032041;28;20513;-61
2021/04/05 05:12:34;;;;;;;46.63;24.57;;;;;;;;;;5033190;28;20523;-61
2021/04/05 05:15:00;;;;;;;47.10;24.97;;;;;;;;;;5033551;28;20453;-61
2021/04/05 05:17:27;;;;;;;49.70;24.83;;;;;;;;;;5032717;28;20456;-61
2021/04/05 05:19:55;;;;;;;47.13;25.90;;;;;;;;;;5031578;28;20579;-62
2021/04/05 05:22:22;;;;;;;44.60;25.37;;;;;;;;;;5032617;28;20489;-60
2021/04/05 05:24:49;;;;;;;45.07;25.00;;;;;;;;;;5032949;28;20532;-60
2021/04/05 05:27:17;;;;;;;45.47;24.13;;;;;;;;;;5033281;28;20598;-61
2021/04/05 05:29:44;;;;;;;52.43;29.77;;;;;;;;;;5032879;28;20498;-61
2021/04/05 05:32:11;;;;;;;40.77;24.67;;;;;;;;;;5033131;28;20480;-61
2021/04/05 05:34:38;;;;;;;44.77;26.83;;;;;;;;;;5032926;28;20465;-59
2021/04/05 05:37:05;;;;;;;48.43;29.33;;;;;;;;;;5033000;28;20456;-61
2021/04/05 05:39:32;;;;;;;51.53;26.40;;;;;;;;;;5033223;28;20982;-62
2021/04/05 05:42:09;;;;;;;51.87;26.20;;;;;;;;;;5032481;28;20546;-61
2021/04/05 05:44:41;;;;;;;49.13;28.33;;;;;;;;;;5033057;28;20444;-60
2021/04/05 05:47:08;;;;;;;53.37;29.50;;;;;;;;;;5032567;28;20453;-61
2021/04/05 05:49:36;;;;;;;56.13;29.27;;;;;;;;;;5032916;28;20456;-61
2021/04/05 05:52:07;;;;;;;44.30;25.43;;;;;;;;;;5032494;28;20560;-60
2021/04/05 05:54:56;;;;;;;57.93;31.47;;;;;;;;;;5032376;28;20941;-60
2021/04/05 05:57:25;;;;;;;53.63;26.60;;;;;;;;;;5032700;28;20968;-60
2021/04/05 05:59:52;;;;;;;49.20;29.87;;;;;;;;;;5032304;28;20452;-57
2021/04/05 06:02:37;;;;;;;49.50;29.07;;;;;;;;;;5032316;28;21016;-61
2021/04/05 06:05:10;;;;;;;51.60;28.07;;;;;;;;;;5032110;28;20976;-61
2021/04/05 06:07:42;;;;;;;47.80;28.90;;;;;;;;;;5033182;28;20503;-62
2021/04/05 06:10:14;;;;;;;46.60;27.60;;;;;;;;;;5032079;28;20961;-62
2021/04/05 06:12:43;;;;;;;45.77;25.90;;;;;;;;;;5032522;28;20492;-61
2021/04/05 06:15:18;;;;;;;48.93;27.33;;;;;;;;;;5032895;28;20448;-62
2021/04/05 06:18:00;;;;;;;56.90;30.97;;;;;;;;;;5032383;28;20506;-61
2021/04/05 06:20:27;;;;;;;49.50;27.83;;;;;;;;;;5032035;28;20527;-62
2021/04/05 06:22:59;;;;;;;53.57;31.37;;;;;;;;;;5031983;28;20493;-62
2021/04/05 06:25:31;;;;;;;46.13;23.20;;;;;;;;;;5032424;28;20445;-62
2021/04/05 06:28:03;;;;;;;52.53;30.03;;;;;;;;;;5032185;28;20449;-62
2021/04/05 06:30:35;;;;;;;56.97;32.03;;;;;;;;;;5031717;28;20461;-62
2021/04/05 06:33:07;;;;;;;55.53;31.37;;;;;;;;;;5031873;28;21089;-61
2021/04/05 06:35:50;;;;;;;53.30;30.47;;;;;;;;;;5032009;28;20467;-61
2021/04/05 06:38:21;;;;;;;57.97;29.57;;;;;;;;;;5032649;28;20531;-61
2021/04/05 06:40:48;;;;;;;56.83;33.27;;;;;;;;;;5031645;28;20460;-63
2021/04/05 06:43:28;;;;;;;55.73;32.13;;;;;;;;;;5032001;28;20485;-63
2021/04/05 06:45:56;;;;;;;57.87;30.40;;;;;;;;;;5032019;28;20460;-61
2021/04/05 06:48:35;;;;;;;67.40;34.93;;;;;;;;;;5031936;28;20507;-62
2021/04/05 06:51:05;;;;;;;47.50;29.33;;;;;;;;;;5031470;28;20502;-62
2021/04/05 06:53:46;;;;;;;55.80;31.00;;;;;;;;;;5031861;28;20500;-62
2021/04/05 06:56:16;;;;;;;66.17;34.40;;;;;;;;;;5031881;28;20449;-62
2021/04/05 06:58:49;;;;;;;55.83;34.17;;;;;;;;;;5031837;28;20453;-61
2021/04/05 07:01:20;;;;;;;56.70;34.80;;;;;;;;;;5031681;28;20448;-63
2021/04/05 07:04:15;;;;;;;47.07;27.73;;;;;;;;;;5031348;28;20960;-63
2021/04/05 07:06:46;;;;;;;68.07;37.47;;;;;;;;;;5031955;28;20535;-62
2021/04/05 07:09:17;;;;;;;62.87;39.90;;;;;;;;;;5031681;28;20456;-62
2021/04/05 07:11:46;;;;;;;76.30;39.60;;;;;;;;;;5031301;28;20456;-61
2021/04/05 07:14:18;;;;;;;74.23;40.47;;;;;;;;;;5031441;28;20830;-62
2021/04/05 07:16:52;;;;;;;69.67;40.20;;;;;;;;;;5031519;28;20449;-62
2021/04/05 07:19:34;;;;;;;77.07;38.60;;;;;;;;;;5031526;28;20897;-62
2021/04/05 07:22:07;;;;;;;64.40;37.33;;;;;;;;;;5031421;28;20519;-62
2021/04/05 07:24:37;;;;;;;56.87;34.07;;;;;;;;;;5031780;28;20811;-62
2021/04/05 07:27:07;;;;;;;65.57;34.03;;;;;;;;;;5031270;28;20503;-62
2021/04/05 07:29:36;;;;;;;69.00;35.80;;;;;;;;;;5031469;28;20963;-60
2021/04/05 07:32:04;;;;;;;66.33;37.23;;;;;;;;;;5030842;28;20469;-61
2021/04/05 07:34:38;;;;;;;62.17;36.97;;;;;;;;;;5031402;28;20467;-61
2021/04/05 07:37:28;;;;;;;69.50;38.00;;;;;;;;;;5031356;28;20457;-61
2021/04/05 07:40:01;;;;;;;66.33;38.97;;;;;;;;;;5031115;28;20476;-61
2021/04/05 07:42:30;;;;;;;72.80;38.50;;;;;;;;;;5034378;28;20472;-64
2021/04/05 07:45:02;;;;;;;71.30;41.37;;;;;;;;;;5033142;28;20448;-64
2021/04/05 07:47:30;;;;;;;60.77;32.87;;;;;;;;;;5046968;28;20475;-63
2021/04/05 07:49:59;;;;;;;44.17;28.67;;;;;;;;;;5033965;28;20452;-65
2021/04/05 07:52:31;;;;;;;45.80;28.13;;;;;;;;;;5034820;28;20484;-65
2021/04/05 07:54:58;;;;;;;43.53;24.97;;;;;;;;;;5034586;28;20444;-65
2021/04/05 07:57:28;;;;;;;18.73;9.30;;;;;;;;;;5034440;28;20917;-65
2021/04/05 07:59:59;;;;;;;15.13;10.30;;;;;;;;;;5034157;28;20460;-58
2021/04/05 08:02:33;;;;;;;8.73;6.33;;;;;;;;;;5034201;28;20472;-61
2021/04/05 08:05:03;;;;;;;9.40;5.53;;;;;;;;;;5034531;28;20449;-65
2021/04/05 08:07:33;;;;;;;5.87;4.30;;;;;;;;;;5034483;28;20459;-64
2021/04/05 08:10:05;;;;;;;4.33;2.60;;;;;;;;;;5034281;28;20475;-62
2021/04/05 08:12:36;;;;;;;4.03;3.00;;;;;;;;;;5034087;28;20479;-62
2021/04/05 08:15:10;;;;;;;3.70;1.90;;;;;;;;;;5033940;28;20446;-62
2021/04/05 08:17:44;;;;;;;3.67;1.97;;;;;;;;;;5034312;28;20452;-60
2021/04/05 08:20:12;;;;;;;2.40;1.60;;;;;;;;;;5033650;28;20509;-62
2021/04/05 08:22:44;;;;;;;5.83;2.43;;;;;;;;;;5034072;28;20502;-63
2021/04/05 08:25:23;;;;;;;6.17;3.33;;;;;;;;;;5033496;28;20457;-62
2021/04/05 08:27:53;;;;;;;3.43;2.77;;;;;;;;;;5033862;28;20552;-60
2021/04/05 08:30:22;;;;;;;6.00;2.97;;;;;;;;;;5033253;28;20914;-60
2021/04/05 08:32:53;;;;;;;3.20;2.70;;;;;;;;;;5034000;28;20478;-61
2021/04/05 08:35:22;;;;;;;5.57;3.50;;;;;;;;;;5033643;28;20462;-61
2021/04/05 08:37:55;;;;;;;8.13;3.97;;;;;;;;;;5044500;28;20454;-64
2021/04/05 08:40:25;;;;;;;6.90;3.57;;;;;;;;;;5053212;28;20465;-63
2021/04/05 08:42:55;;;;;;;5.00;3.70;;;;;;;;;;5052590;28;20581;-62
2021/04/05 08:45:23;;;;;;;4.60;3.03;;;;;;;;;;5053034;28;20457;-63
2021/04/05 08:47:52;;;;;;;4.87;3.40;;;;;;;;;;5052323;28;20455;-63
2021/04/05 08:50:21;;;;;;;8.87;4.97;;;;;;;;;;5052974;28;20528;-62
2021/04/05 08:52:49;;;;;;;7.30;4.93;;;;;;;;;;5052872;28;20473;-62
2021/04/05 08:55:16;;;;;;;7.17;5.50;;;;;;;;;;5053250;28;20445;-61
2021/04/05 08:57:52;;;;;;;7.73;6.00;;;;;;;;;;5053541;28;20446;-59
2021/04/05 09:00:20;;;;;;;7.27;5.47;;;;;;;;;;5052806;28;20512;-62
2021/04/05 09:02:48;;;;;;;7.70;4.37;;;;;;;;;;5053942;28;20490;-65
2021/04/05 09:05:16;;;;;;;6.07;5.47;;;;;;;;;;5051762;28;20452;-65
2021/04/05 09:07:48;;;;;;;7.00;4.73;;;;;;;;;;5053475;28;20453;-65
2021/04/05 09:10:18;;;;;;;8.90;6.20;;;;;;;;;;5053701;28;20451;-65
2021/04/05 09:12:46;;;;;;;4.20;3.13;;;;;;;;;;5052744;28;20468;-65
2021/04/05 09:15:32;;;;;;;7.17;2.97;;;;;;;;;;5053331;28;20481;-65
2021/04/05 09:18:15;;;;;;;4.53;3.20;;;;;;;;;;5052634;28;20483;-65
2021/04/05 09:20:58;;;;;;;8.07;3.93;;;;;;;;;;5053451;28;20456;-61
2021/04/05 09:23:40;;;;;;;11.90;5.23;;;;;;;;;;5053395;28;20488;-59
2021/04/05 09:26:18;;;;;;;12.20;3.03;;;;;;;;;;5052477;28;20945;-61
2021/04/05 09:28:53;;;;;;;12.70;3.70;;;;;;;;;;5052142;28;20456;-61
2021/04/05 09:31:33;;;;;;;7.10;2.77;;;;;;;;;;5052165;28;20546;-61
2021/04/05 09:34:27;;;;;;;16.13;4.03;;;;;;;;;;5051671;28;20480;-62
2021/04/05 09:37:03;;;;;;;12.43;3.40;;;;;;;;;;5039018;28;20456;-62
2021/04/05 09:39:49;;;;;;;12.00;3.50;;;;;;;;;;5052594;28;20847;-62
2021/04/05 09:42:35;;;;;;;11.33;3.10;;;;;;;;;;5052231;28;20476;-63
2021/04/05 09:45:08;;;;;;;10.00;2.00;;;;;;;;;;5051913;28;20437;-63
2021/04/05 09:47:45;;;;;;;15.27;3.50;;;;;;;;;;5050978;28;20463;-63
2021/04/05 09:50:21;;;;;;;13.27;3.00;;;;;;;;;;5051366;28;20444;-62
2021/04/05 09:53:16;;;;;;;8.07;3.27;;;;;;;;;;5052174;28;20468;-65
2021/04/05 09:55:44;;;;;;;15.47;3.70;;;;;;;;;;5051601;28;20455;-64
2021/04/05 09:58:15;;;;;;;8.40;3.27;;;;;;;;;;5052117;28;20444;-62
2021/04/05 10:00:47;;;;;;;10.50;3.17;;;;;;;;;;5051090;28;20452;-62
2021/04/05 10:03:16;;;;;;;13.97;3.47;;;;;;;;;;5051881;28;20560;-62
2021/04/05 10:05:44;;;;;;;14.40;4.23;;;;;;;;;;5050548;28;20452;-61
2021/04/05 10:08:15;;;;;;;11.73;3.33;;;;;;;;;;5051897;28;20445;-61
2021/04/05 10:10:41;;;;;;;13.43;3.90;;;;;;;;;;5051414;28;20975;-62
2021/04/05 10:13:08;;;;;;;14.87;4.67;;;;;;;;;;5051828;28;20465;-62
2021/04/05 10:15:35;;;;;;;20.03;4.23;;;;;;;;;;5051400;28;20464;-62
2021/04/05 10:18:08;;;;;;;12.93;3.80;;;;;;;;;;5051539;28;20934;-62
2021/04/05 10:20:34;;;;;;;12.13;3.20;;;;;;;;;;5051802;28;20449;-60
2021/04/05 10:23:04;;;;;;;17.27;3.47;;;;;;;;;;5051185;28;20496;-63
2021/04/05 10:25:31;;;;;;;12.47;4.47;;;;;;;;;;5051546;28;20537;-64
2021/04/05 10:27:59;;;;;;;12.20;3.50;;;;;;;;;;5051785;28;20544;-64
2021/04/05 10:30:31;;;;;;;9.77;3.73;;;;;;;;;;5051611;28;20591;-65
2021/04/05 10:33:00;;;;;;;14.10;3.73;;;;;;;;;;5051521;28;20533;-65
2021/04/05 10:35:29;;;;;;;26.77;13.40;;;;;;;;;;5050434;28;20475;-63
2021/04/05 10:37:55;;;;;;;8.33;3.57;;;;;;;;;;5051795;28;20455;-66
2021/04/05 10:40:22;;;;;;;8.27;4.30;;;;;;;;;;5051215;28;20502;-67
2021/04/05 10:42:50;;;;;;;9.67;4.10;;;;;;;;;;5051275;28;20488;-64
2021/04/05 10:45:21;;;;;;;8.90;2.83;;;;;;;;;;5051308;28;20820;-64
2021/04/05 10:47:51;;;;;;;4.20;2.10;;;;;;;;;;5051499;28;20456;-64
2021/04/05 10:50:19;;;;;;;5.93;1.73;;;;;;;;;;5051444;28;20448;-63
2021/04/05 10:52:51;;;;;;;3.50;1.23;;;;;;;;;;5051669;28;20471;-62
2021/04/05 10:55:19;;;;;;;3.50;0.93;;;;;;;;;;5051023;28;21139;-68
2021/04/05 10:57:46;;;;;;;1.30;1.20;;;;;;;;;;5051079;28;20452;-64
2021/04/05 11:00:17;;;;;;;1.70;1.23;;;;;;;;;;5050942;28;20455;-64
2021/04/05 11:02:45;;;;;;;3.17;2.27;;;;;;;;;;5051256;28;20980;-64
2021/04/05 11:05:12;;;;;;;4.47;3.33;;;;;;;;;;5049502;28;20452;-63
2021/04/05 11:07:40;;;;;;;7.23;4.97;;;;;;;;;;5051088;28;20937;-64
2021/04/05 11:10:09;;;;;;;6.43;3.60;;;;;;;;;;5050522;28;20505;-62
2021/04/05 11:12:37;;;;;;;4.30;2.87;;;;;;;;;;5051434;28;20527;-63
2021/04/05 11:15:05;;;;;;;3.97;2.57;;;;;;;;;;5051017;28;20448;-61
2021/04/05 11:17:33;;;;;;;4.13;1.83;;;;;;;;;;5055344;28;20459;-61
2021/04/05 11:20:00;;;;;;;1.70;1.60;;;;;;;;;;5055587;28;20444;-61
2021/04/05 11:22:29;;;;;;;2.87;1.73;;;;;;;;;;5054994;28;20471;-60
2021/04/05 11:24:59;;;;;;;4.83;1.47;;;;;;;;;;5055235;28;20491;-61
2021/04/05 11:27:28;;;;;;;3.13;1.73;;;;;;;;;;5055397;28;20494;-62
2021/04/05 11:29:56;;;;;;;2.53;1.47;;;;;;;;;;5055697;28;20452;-62
2021/04/05 11:32:24;;;;;;;3.20;1.50;;;;;;;;;;5054860;28;20567;-61
2021/04/05 11:34:54;;;;;;;1.63;1.17;;;;;;;;;;5056204;28;20507;-66
2021/04/05 11:37:21;;;;;;;2.33;1.30;;;;;;;;;;5055520;28;20452;-67
2021/04/05 11:39:48;;;;;;;5.87;1.40;;;;;;;;;;5054592;28;20448;-65
2021/04/05 11:42:16;;;;;;;4.67;1.83;;;;;;;;;;5054377;28;20475;-64
2021/04/05 11:44:50;;;;;;;4.23;2.10;;;;;;;;;;5055392;28;20486;-61
2021/04/05 11:47:17;;;;;;;2.87;1.63;;;;;;;;;;5054532;28;20546;-63
2021/04/05 11:49:44;;;;;;;6.53;2.23;;;;;;;;;;5054300;28;20456;-61
2021/04/05 11:52:14;;;;;;;5.73;1.60;;;;;;;;;;5054774;28;20472;-61
2021/04/05 11:54:43;;;;;;;5.63;1.93;;;;;;;;;;5054857;28;20980;-62
2021/04/05 11:57:10;;;;;;;2.87;1.50;;;;;;;;;;5054178;28;20444;-63
2021/04/05 11:59:43;;;;;;;4.87;1.80;;;;;;;;;;5055414;28;20820;-60
2021/04/05 12:02:17;;;;;;;5.90;2.17;;;;;;;;;;5055327;28;21244;-62
2021/04/05 12:04:46;;;;;;;5.73;2.00;;;;;;;;;;5055331;28;21099;-59
2021/04/05 12:07:14;;;;;;;9.60;2.27;;;;;;;;;;5055578;28;20533;-62
2021/04/05 12:09:44;;;;;;;6.77;1.77;;;;;;;;;;5054871;28;20471;-63
2021/04/05 12:12:17;;;;;;;9.37;1.80;;;;;;;;;;5056152;28;20468;-63
2021/04/05 12:14:44;;;;;;;10.47;2.77;;;;;;;;;;5055195;28;20444;-62
2021/04/05 12:17:12;;;;;;;7.90;2.10;;;;;;;;;;5055543;28;20968;-62
2021/04/05 12:19:42;;;;;;;6.57;3.03;;;;;;;;;;5054572;28;20455;-62
2021/04/05 12:22:08;;;;;;;5.43;1.70;;;;;;;;;;5054874;28;20472;-63
2021/04/05 12:24:36;;;;;;;14.70;2.90;;;;;;;;;;5053798;28;20487;-61
2021/04/05 12:27:05;;;;;;;7.70;1.93;;;;;;;;;;5053445;28;20444;-60
2021/04/05 12:29:32;;;;;;;7.27;1.97;;;;;;;;;;5054442;28;20449;-61
2021/04/05 12:32:00;;;;;;;5.10;1.90;;;;;;;;;;5053926;28;20468;-61
2021/04/05 12:34:29;;;;;;;6.73;2.10;;;;;;;;;;5054182;28;20514;-63
2021/04/05 12:36:55;;;;;;;7.47;2.03;;;;;;;;;;5053548;28;20452;-59
2021/04/05 12:39:28;;;;;;;5.93;1.63;;;;;;;;;;5053762;28;20451;-64
2021/04/05 12:41:55;;;;;;;4.43;1.10;;;;;;;;;;5052794;28;20460;-63
2021/04/05 12:44:25;;;;;;;7.83;1.43;;;;;;;;;;5053549;28;20491;-61
2021/04/05 12:46:53;;;;;;;6.07;1.73;;;;;;;;;;5053665;28;20456;-62
2021/04/05 12:49:21;;;;;;;4.03;1.70;;;;;;;;;;5053570;28;20451;-61
2021/04/05 12:51:52;;;;;;;7.70;2.83;;;;;;;;;;5053180;28;20506;-62
2021/04/05 12:54:21;;;;;;;2.73;1.77;;;;;;;;;;5053224;28;20459;-62
2021/04/05 12:56:48;;;;;;;8.00;2.23;;;;;;;;;;5053289;28;20452;-60
2021/04/05 12:59:21;;;;;;;3.87;1.97;;;;;;;;;;5053400;28;20455;-62
2021/04/05 13:01:50;;;;;;;5.93;1.70;;;;;;;;;;5053090;28;20449;-63
2021/04/05 13:04:19;;;;;;;4.50;1.63;;;;;;;;;;5053073;28;20535;-63
2021/04/05 13:06:47;;;;;;;6.43;1.60;;;;;;;;;;5052736;28;20458;-62
2021/04/05 13:09:19;;;;;;;6.10;1.30;;;;;;;;;;5053615;28;20444;-63
2021/04/05 13:11:47;;;;;;;5.73;1.10;;;;;;;;;;5052934;28;20869;-62
2021/04/05 13:14:16;;;;;;;3.60;0.83;;;;;;;;;;5053591;28;21057;-64
2021/04/05 13:16:47;;;;;;;3.23;0.83;;;;;;;;;;5053351;28;21053;-63
2021/04/05 13:19:15;;;;;;;2.20;1.17;;;;;;;;;;5053707;28;20445;-60
2021/04/05 13:21:43;;;;;;;5.63;1.43;;;;;;;;;;5052719;28;20453;-62
2021/04/05 13:24:12;;;;;;;8.00;1.40;;;;;;;;;;5053631;28;20496;-62
2021/04/05 13:26:41;;;;;;;2.77;1.23;;;;;;;;;;5052777;28;20831;-62
2021/04/05 13:29:08;;;;;;;4.17;0.97;;;;;;;;;;5052676;28;20970;-62
2021/04/05 13:31:36;;;;;;;3.83;0.80;;;;;;;;;;5052377;28;20447;-62
2021/04/05 13:34:03;;;;;;;3.33;1.10;;;;;;;;;;5052215;28;20476;-62
2021/04/05 13:36:31;;;;;;;3.90;1.50;;;;;;;;;;5052466;28;20458;-62
2021/04/05 13:39:00;;;;;;;4.67;1.30;;;;;;;;;;5052036;28;20809;-62
2021/04/05 13:41:27;;;;;;;2.97;0.93;;;;;;;;;;5051761;28;20859;-63
2021/04/05 13:43:56;;;;;;;2.43;1.20;;;;;;;;;;5052372;28;20492;-62
2021/04/05 13:46:24;;;;;;;2.47;0.90;;;;;;;;;;5052155;28;20450;-62
2021/04/05 13:48:56;;;;;;;2.90;1.20;;;;;;;;;;5052707;28;20872;-63
2021/04/05 13:51:23;;;;;;;4.40;1.10;;;;;;;;;;5052268;28;20456;-62
2021/04/05 13:53:54;;;;;;;1.70;0.50;;;;;;;;;;5052261;28;20465;-62
2021/04/05 13:56:24;;;;;;;4.03;1.00;;;;;;;;;;5052310;28;20445;-61
2021/04/05 13:58:52;;;;;;;5.23;1.10;;;;;;;;;;5052048;28;20448;-61
2021/04/05 14:01:21;;;;;;;4.23;0.93;;;;;;;;;;5052157;28;20449;-62
2021/04/05 14:03:48;;;;;;;4.10;1.07;;;;;;;;;;5051898;28;20496;-62
2021/04/05 14:06:18;;;;;;;6.07;1.37;;;;;;;;;;5051826;28;20526;-61
2021/04/05 14:08:45;;;;;;;6.03;1.37;;;;;;;;;;5052139;28;20456;-62
2021/04/05 14:11:14;;;;;;;5.47;1.70;;;;;;;;;;5051462;28;20493;-62
2021/04/05 14:13:41;;;;;;;1.03;0.90;;;;;;;;;;5051746;28;20968;-60
2021/04/05 14:16:18;;;;;;;6.70;1.40;;;;;;;;;;5051987;28;20452;-61
2021/04/05 14:18:53;;;;;;;5.37;1.60;;;;;;;;;;5051914;28;20455;-62
2021/04/05 14:21:20;;;;;;;5.70;1.23;;;;;;;;;;5051625;28;20453;-63
2021/04/05 14:23:49;;;;;;;8.80;1.57;;;;;;;;;;5051350;28;20499;-62
2021/04/05 14:26:18;;;;;;;2.77;1.00;;;;;;;;;;5051578;28;20452;-62
2021/04/05 14:28:47;;;;;;;10.43;1.30;;;;;;;;;;5051792;28;20448;-62
2021/04/05 14:31:15;;;;;;;6.43;1.57;;;;;;;;;;5051301;28;20949;-60
2021/04/05 14:33:43;;;;;;;3.50;1.27;;;;;;;;;;5051355;28;20526;-62
2021/04/05 14:36:12;;;;;;;8.30;1.77;;;;;;;;;;5051362;28;20847;-63
2021/04/05 14:38:40;;;;;;;4.67;1.50;;;;;;;;;;5051577;28;20451;-63
2021/04/05 14:41:10;;;;;;;4.80;1.53;;;;;;;;;;5051398;28;20460;-63